sensor_id;sensor_type;location;lat;lon;timestamp;pressure;altitude;pressure_sealevel;temperature;humidity
84199;BME280;74337;46.510;6.668;2023-11-21T20:50:47;96718.78;;;28.78;31.95
84199;BME280;74337;46.510;6.668;2023-11-21T20:53:35;96714.81;;;28.79;31.92
84199;BME280;74337;46.510;6.668;2023-11-21T20:56:24;96725.94;;;28.71;31.86
84199;BME280;74337;46.510;6.668;2023-11-21T20:59:12;96720.50;;;28.61;31.99
84199;BME280;74337;46.510;6.668;2023-11-21T21:02:01;96723.56;;;28.74;31.93
84199;BME280;74337;46.510;6.668;2023-11-21T21:04:49;96718.22;;;28.93;31.59
84199;BME280;74337;46.510;6.668;2023-11-21T21:07:37;96729.09;;;28.74;31.86
84199;BME280;74337;46.510;6.668;2023-11-21T21:10:25;96728.66;;;28.75;31.85
84199;BME280;74337;46.510;6.668;2023-11-21T21:13:15;96727.72;;;28.92;31.55
84199;BME280;74337;46.510;6.668;2023-11-21T21:16:05;96724.22;;;28.85;31.54
84199;BME280;74337;46.510;6.668;2023-11-21T21:18:55;96720.28;;;28.86;31.55
84199;BME280;74337;46.510;6.668;2023-11-21T21:21:43;96711.69;;;28.77;31.55
84199;BME280;74337;46.510;6.668;2023-11-21T21:24:32;96706.00;;;28.91;31.36
84199;BME280;74337;46.510;6.668;2023-11-21T21:27:21;96703.28;;;28.87;31.38
84199;BME280;74337;46.510;6.668;2023-11-21T21:30:10;96707.28;;;28.83;31.28
84199;BME280;74337;46.510;6.668;2023-11-21T21:32:58;96706.81;;;28.91;31.11
84199;BME280;74337;46.510;6.668;2023-11-21T21:35:48;96717.13;;;28.84;31.36
84199;BME280;74337;46.510;6.668;2023-11-21T21:38:37;96719.00;;;28.94;31.19
84199;BME280;74337;46.510;6.668;2023-11-21T21:41:27;96721.75;;;28.98;30.94
84199;BME280;74337;46.510;6.668;2023-11-21T21:44:17;96718.69;;;28.88;31.08
84199;BME280;74337;46.510;6.668;2023-11-21T21:47:08;96716.94;;;29.05;30.84
84199;BME280;74337;46.510;6.668;2023-11-21T21:49:59;96727.56;;;29.10;30.63
84199;BME280;74337;46.510;6.668;2023-11-21T21:52:48;96737.06;;;29.06;30.69
84199;BME280;74337;46.510;6.668;2023-11-21T21:55:36;96738.00;;;28.92;30.94
84199;BME280;74337;46.510;6.668;2023-11-21T21:58:24;96736.28;;;29.05;30.72
84199;BME280;74337;46.510;6.668;2023-11-21T22:01:14;96738.66;;;29.07;30.51
84199;BME280;74337;46.510;6.668;2023-11-21T22:04:04;96740.91;;;29.19;30.23
84199;BME280;74337;46.510;6.668;2023-11-21T22:06:53;96736.00;;;29.30;29.97
84199;BME280;74337;46.510;6.668;2023-11-21T22:09:42;96737.72;;;29.21;30.29
84199;BME280;74337;46.510;6.668;2023-11-21T22:12:29;96736.97;;;29.16;30.21
84199;BME280;74337;46.510;6.668;2023-11-21T22:15:17;96729.41;;;29.21;30.21
84199;BME280;74337;46.510;6.668;2023-11-21T22:18:05;96733.94;;;29.00;30.53
84199;BME280;74337;46.510;6.668;2023-11-21T22:20:54;96736.59;;;29.14;30.40
84199;BME280;74337;46.510;6.668;2023-11-21T22:23:41;96750.94;;;29.02;30.39
84199;BME280;74337;46.510;6.668;2023-11-21T22:26:29;96750.53;;;29.00;30.54
84199;BME280;74337;46.510;6.668;2023-11-21T22:29:17;96758.72;;;29.14;30.38
84199;BME280;74337;46.510;6.668;2023-11-21T22:32:05;96763.50;;;29.10;30.29
84199;BME280;74337;46.510;6.668;2023-11-21T22:34:53;96764.31;;;29.07;30.36
84199;BME280;74337;46.510;6.668;2023-11-21T22:37:41;96760.00;;;29.06;30.49
84199;BME280;74337;46.510;6.668;2023-11-21T22:40:29;96770.59;;;29.11;30.32
84199;BME280;74337;46.510;6.668;2023-11-21T22:43:17;96771.84;;;29.00;30.61
84199;BME280;74337;46.510;6.668;2023-11-21T22:46:05;96768.28;;;29.06;30.39
84199;BME280;74337;46.510;6.668;2023-11-21T22:48:56;96771.50;;;28.98;30.55
84199;BME280;74337;46.510;6.668;2023-11-21T22:51:45;96764.31;;;29.07;30.36
84199;BME280;74337;46.510;6.668;2023-11-21T22:54:33;96766.75;;;28.98;30.48
84199;BME280;74337;46.510;6.668;2023-11-21T22:57:21;96771.25;;;28.81;30.81
84199;BME280;74337;46.510;6.668;2023-11-21T23:00:10;96762.44;;;28.93;30.72
84199;BME280;74337;46.510;6.668;2023-11-21T23:03:08;96763.69;;;28.89;30.74
84199;BME280;74337;46.510;6.668;2023-11-21T23:05:57;96764.34;;;29.00;30.54
84199;BME280;74337;46.510;6.668;2023-11-21T23:10:18;96760.22;;;29.23;30.52
84199;BME280;74337;46.510;6.668;2023-11-21T23:13:06;96758.50;;;28.91;30.85
84199;BME280;74337;46.510;6.668;2023-11-21T23:15:56;96763.56;;;28.58;31.60
84199;BME280;74337;46.510;6.668;2023-11-21T23:18:44;96772.41;;;28.28;32.00
84199;BME280;74337;46.510;6.668;2023-11-21T23:21:37;96769.00;;;28.02;32.25
84199;BME280;74337;46.510;6.668;2023-11-21T23:24:25;96765.53;;;27.88;32.67
84199;BME280;74337;46.510;6.668;2023-11-21T23:27:13;96775.03;;;27.76;32.92
84199;BME280;74337;46.510;6.668;2023-11-21T23:30:01;96778.22;;;27.64;32.99
84199;BME280;74337;46.510;6.668;2023-11-21T23:32:49;96781.41;;;27.55;33.26
84199;BME280;74337;46.510;6.668;2023-11-21T23:35:37;96784.97;;;27.52;33.21
84199;BME280;74337;46.510;6.668;2023-11-21T23:38:26;96777.50;;;27.45;33.46
84199;BME280;74337;46.510;6.668;2023-11-21T23:41:14;96772.78;;;27.42;33.58
84199;BME280;74337;46.510;6.668;2023-11-21T23:44:04;96772.03;;;27.34;33.59
84199;BME280;74337;46.510;6.668;2023-11-21T23:46:52;96770.84;;;27.28;33.65
84199;BME280;74337;46.510;6.668;2023-11-21T23:49:40;96787.38;;;27.28;33.70
84199;BME280;74337;46.510;6.668;2023-11-21T23:52:29;96790.56;;;27.27;33.89
84199;BME280;74337;46.510;6.668;2023-11-21T23:55:17;96784.28;;;27.23;33.90
84199;BME280;74337;46.510;6.668;2023-11-21T23:58:06;96781.53;;;27.23;33.96
